createdAt,value
2022-10-12T00:04:38.727Z,62.20
2022-10-12T00:09:42.450Z,62.60
2022-10-12T00:14:47.080Z,63.10
2022-10-12T00:19:51.926Z,62.90
2022-10-12T00:24:55.252Z,63.20
2022-10-12T00:29:59.929Z,63.10
2022-10-12T00:35:03.904Z,63.10
2022-10-12T00:40:08.338Z,63.20
2022-10-12T00:45:13.282Z,63.10
2022-10-12T00:50:20.754Z,62.90
2022-10-12T00:55:26.397Z,62.80
2022-10-12T01:00:31.147Z,62.50
2022-10-12T01:05:34.793Z,62.40
2022-10-12T01:10:38.400Z,62.60
2022-10-12T01:15:50.909Z,62.80
2022-10-12T01:21:05.952Z,62.80
2022-10-12T01:26:35.625Z,63.00
2022-10-12T01:31:45.493Z,62.60
2022-10-12T01:36:55.409Z,62.70
2022-10-12T01:42:04.265Z,62.60
2022-10-12T01:47:09.974Z,62.60
2022-10-12T01:52:28.030Z,62.50
2022-10-12T01:57:40.124Z,62.80
2022-10-12T02:02:54.012Z,62.60
2022-10-12T02:08:03.104Z,62.90
2022-10-12T02:13:09.455Z,64.00
2022-10-12T02:18:18.535Z,63.80
2022-10-12T02:23:24.806Z,64.00
2022-10-12T02:28:30.592Z,64.50
2022-10-12T02:33:40.097Z,65.00
2022-10-12T02:38:50.710Z,66.00
2022-10-12T02:43:58.861Z,66.30
2022-10-12T02:49:05.434Z,65.90
2022-10-12T02:54:09.434Z,65.80
2022-10-12T02:59:13.583Z,66.20
2022-10-12T03:04:18.314Z,67.00
2022-10-12T03:09:21.845Z,67.50
2022-10-12T03:14:26.916Z,67.90
2022-10-12T03:19:31.667Z,67.60
2022-10-12T03:24:35.024Z,66.60
2022-10-12T03:29:38.328Z,66.90
2022-10-12T03:34:43.279Z,67.10
2022-10-12T03:39:47.289Z,66.90
2022-10-12T03:44:51.500Z,66.40
2022-10-12T03:49:56.225Z,66.30
2022-10-12T03:54:59.502Z,66.70
2022-10-12T04:00:03.386Z,66.30
2022-10-12T04:05:09.081Z,66.40
2022-10-12T04:10:12.416Z,66.80
2022-10-12T04:15:18.192Z,67.00
2022-10-12T04:20:22.946Z,67.30
2022-10-12T04:25:30.061Z,67.30
2022-10-12T04:30:34.068Z,67.00
2022-10-12T04:35:38.706Z,67.60
2022-10-12T04:40:42.013Z,67.70
2022-10-12T04:45:45.558Z,67.60
2022-10-12T04:50:50.258Z,66.70
2022-10-12T04:55:53.824Z,66.70
2022-10-12T05:00:57.497Z,66.70
2022-10-12T05:06:02.200Z,67.00
2022-10-12T05:11:05.961Z,67.20
2022-10-12T05:16:09.330Z,66.90
2022-10-12T05:21:14.039Z,66.60
2022-10-12T05:26:17.651Z,66.20
2022-10-12T05:31:22.429Z,66.50
2022-10-12T05:36:27.166Z,67.40
2022-10-12T05:41:30.629Z,67.10
2022-10-12T05:46:33.965Z,67.40
2022-10-12T05:51:40.538Z,67.10
2022-10-12T05:56:44.145Z,67.30
2022-10-12T06:01:48.276Z,68.00
2022-10-12T06:06:53.060Z,68.10
2022-10-12T06:11:56.743Z,67.90
2022-10-12T06:17:00.177Z,67.60
2022-10-12T06:22:05.207Z,68.60
2022-10-12T06:27:08.545Z,68.50
2022-10-12T06:32:11.869Z,69.20
2022-10-12T06:37:44.417Z,69.30
2022-10-12T06:42:40.884Z,69.40
2022-10-12T06:47:44.372Z,68.90
2022-10-12T06:52:49.436Z,69.90
2022-10-12T06:57:52.738Z,69.50
2022-10-12T07:02:55.998Z,70.00
2022-10-12T07:08:00.698Z,70.20
2022-10-12T07:13:04.035Z,71.00
2022-10-12T07:18:07.427Z,70.10
2022-10-12T07:23:12.114Z,71.60
2022-10-12T07:28:15.427Z,72.10
2022-10-12T07:33:18.799Z,72.10
2022-10-12T07:38:23.587Z,72.90
2022-10-12T07:43:26.945Z,71.80
2022-10-12T07:48:30.296Z,72.40
2022-10-12T07:53:36.756Z,72.40
2022-10-12T07:58:40.074Z,71.60
2022-10-12T08:03:43.902Z,72.00
2022-10-12T08:08:48.982Z,71.70
2022-10-12T08:13:52.358Z,72.10
2022-10-12T08:18:56.184Z,71.50
2022-10-12T08:24:01.229Z,72.30
2022-10-12T08:29:05.864Z,72.30
2022-10-12T08:34:09.742Z,72.20
2022-10-12T08:39:14.556Z,72.90
2022-10-12T08:44:37.037Z,71.60
2022-10-12T08:49:44.196Z,73.00
2022-10-12T08:54:52.374Z,73.50
2022-10-12T08:59:55.741Z,72.40
2022-10-12T09:05:03.134Z,71.70
2022-10-12T09:10:24.495Z,71.20
2022-10-12T09:15:32.774Z,72.10
2022-10-12T09:20:44.212Z,71.10
2022-10-12T09:25:50.220Z,71.00
2022-10-12T09:31:05.256Z,72.70
2022-10-12T09:36:11.526Z,72.10
2022-10-12T09:41:21.955Z,71.50
2022-10-12T09:46:34.327Z,72.10
2022-10-12T09:51:37.806Z,71.40
2022-10-12T09:56:44.773Z,71.10
2022-10-12T10:02:00.597Z,70.80
2022-10-12T10:07:20.644Z,70.30
2022-10-12T10:12:28.270Z,70.40
2022-10-12T10:17:34.776Z,69.60
2022-10-12T10:22:38.608Z,69.70
2022-10-12T10:27:43.272Z,65.30
2022-10-12T10:32:47.466Z,64.40
2022-10-12T10:37:54.017Z,64.60
2022-10-12T10:43:03.801Z,63.90
2022-10-12T10:48:10.681Z,62.30
2022-10-12T10:53:20.391Z,62.70
2022-10-12T10:58:31.353Z,63.10
2022-10-12T11:03:42.280Z,60.30
2022-10-12T11:08:47.476Z,59.80
2022-10-12T11:13:57.802Z,60.40
2022-10-12T11:19:07.408Z,59.20
2022-10-12T11:24:15.943Z,56.80
2022-10-12T11:29:21.374Z,56.10
2022-10-12T11:34:27.081Z,55.40
2022-10-12T11:39:35.966Z,57.00
2022-10-12T11:44:44.304Z,54.70
2022-10-12T11:49:54.017Z,54.30
2022-10-12T11:55:01.921Z,53.10
2022-10-12T12:00:18.239Z,54.90
2022-10-12T12:05:22.261Z,53.60
2022-10-12T12:10:45.319Z,53.20
2022-10-12T12:16:33.746Z,54.50
2022-10-12T12:22:10.450Z,53.80
2022-10-12T12:27:24.584Z,54.80
2022-10-12T12:32:41.292Z,54.20
2022-10-12T12:37:44.929Z,53.30
2022-10-12T12:42:49.761Z,53.60
2022-10-12T12:47:53.095Z,53.60
2022-10-12T12:53:05.118Z,51.50
2022-10-12T12:58:26.858Z,52.90
2022-10-12T13:04:09.439Z,52.70
2022-10-12T13:09:40.780Z,52.20
2022-10-12T13:15:06.579Z,51.90
2022-10-12T13:20:19.380Z,51.70
2022-10-12T13:25:29.634Z,52.30
2022-10-12T13:30:40.631Z,52.20
2022-10-12T13:35:49.688Z,52.50
2022-10-12T13:41:02.294Z,52.00
2022-10-12T13:46:08.711Z,52.00
2022-10-12T13:51:24.598Z,51.20
2022-10-12T13:56:31.885Z,51.50
2022-10-12T14:01:49.402Z,51.60
2022-10-12T14:06:58.096Z,50.60
2022-10-12T14:12:01.831Z,50.40
2022-10-12T14:17:08.452Z,50.20
2022-10-12T14:22:12.944Z,49.90
2022-10-12T14:27:24.182Z,47.50
2022-10-12T14:32:42.304Z,50.30
2022-10-12T14:37:46.717Z,49.30
2022-10-12T14:42:58.292Z,49.60
2022-10-12T14:48:05.053Z,47.90
2022-10-12T14:53:12.729Z,47.50
2022-10-12T14:58:17.904Z,49.40
2022-10-12T15:03:22.571Z,49.10
2022-10-12T15:08:26.543Z,49.60
2022-10-12T15:13:29.937Z,49.20
2022-10-12T15:18:34.806Z,49.00
2022-10-12T15:23:38.262Z,48.70
2022-10-12T15:28:43.183Z,49.10
2022-10-12T15:33:48.050Z,49.10
2022-10-12T15:38:51.665Z,49.20
2022-10-12T15:43:54.970Z,49.30
2022-10-12T15:49:00.138Z,49.60
2022-10-12T15:54:03.445Z,50.20
2022-10-12T15:59:07.144Z,50.10
2022-10-12T16:04:15.530Z,50.10
2022-10-12T16:09:22.176Z,50.20
2022-10-12T16:14:25.433Z,50.20
2022-10-12T16:19:30.120Z,50.40
2022-10-12T16:24:33.374Z,50.60
2022-10-12T16:29:37.298Z,51.00
2022-10-12T16:34:42.594Z,51.20
2022-10-12T16:39:46.143Z,51.60
2022-10-12T16:44:49.684Z,51.50
2022-10-12T16:49:54.854Z,51.90
2022-10-12T16:54:58.164Z,52.40
2022-10-12T17:00:01.566Z,52.60
2022-10-12T17:05:07.285Z,52.50
2022-10-12T17:10:11.185Z,53.30
2022-10-12T17:15:14.560Z,53.20
2022-10-12T17:20:19.593Z,53.50
2022-10-12T17:25:22.917Z,53.60
2022-10-12T17:30:26.271Z,54.30
2022-10-12T17:35:31.087Z,54.60
2022-10-12T17:40:34.770Z,55.00
2022-10-12T17:45:40.653Z,54.90
2022-10-12T17:50:45.350Z,54.90
2022-10-12T17:55:49.164Z,55.30
2022-10-12T18:00:52.684Z,55.70
2022-10-12T18:06:02.887Z,55.80
2022-10-12T18:11:07.895Z,55.70
2022-10-12T18:16:12.793Z,56.30
2022-10-12T18:21:19.164Z,56.70
2022-10-12T18:26:23.115Z,57.10
2022-10-12T18:31:27.581Z,57.20
2022-10-12T18:36:32.480Z,57.40
2022-10-12T18:41:36.087Z,57.30
2022-10-12T18:46:39.666Z,57.90
2022-10-12T18:51:47.903Z,57.70
2022-10-12T18:56:51.240Z,57.70
2022-10-12T19:01:54.980Z,57.70
2022-10-12T19:06:59.645Z,57.70
2022-10-12T19:12:03.027Z,57.90
2022-10-12T19:17:06.472Z,57.70
2022-10-12T19:22:11.731Z,58.10
2022-10-12T19:27:15.371Z,58.20
2022-10-12T19:32:18.985Z,58.60
2022-10-12T19:37:24.506Z,58.90
2022-10-12T19:42:28.850Z,59.00
2022-10-12T19:47:32.346Z,59.10
2022-10-12T19:52:37.734Z,58.80
2022-10-12T19:57:43.386Z,59.50
2022-10-12T20:02:46.771Z,59.20
2022-10-12T20:07:51.545Z,59.30
2022-10-12T20:12:55.369Z,59.00
2022-10-12T20:17:58.717Z,59.80
2022-10-12T20:23:03.349Z,59.80
2022-10-12T20:28:06.883Z,60.10
2022-10-12T20:33:11.033Z,59.90
2022-10-12T20:38:15.815Z,60.10
2022-10-12T20:43:19.134Z,60.10
2022-10-12T20:48:22.931Z,60.10
2022-10-12T20:53:27.886Z,60.10
2022-10-12T20:58:31.191Z,60.20
2022-10-12T21:03:35.682Z,60.00
2022-10-12T21:08:41.114Z,60.40
2022-10-12T21:13:46.012Z,60.70
2022-10-12T21:18:49.632Z,61.50
2022-10-12T21:23:56.358Z,61.20
2022-10-12T21:29:00.590Z,61.80
2022-10-12T21:34:06.473Z,62.20
2022-10-12T21:39:14.167Z,62.00
2022-10-12T21:44:17.508Z,62.20
2022-10-12T21:49:20.827Z,62.10
2022-10-12T21:54:25.717Z,62.40
2022-10-12T21:59:29.049Z,62.20
2022-10-12T22:04:32.404Z,63.60
2022-10-12T22:09:37.075Z,62.80
2022-10-12T22:14:40.463Z,62.90
2022-10-12T22:19:43.930Z,63.40
2022-10-12T22:24:48.690Z,63.30
2022-10-12T22:29:51.967Z,63.40
2022-10-12T22:34:55.585Z,63.90
2022-10-12T22:40:00.417Z,63.50
2022-10-12T22:45:03.742Z,64.00
2022-10-12T22:50:07.835Z,63.80
2022-10-12T22:55:12.548Z,63.80
2022-10-12T23:00:17.127Z,64.40
2022-10-12T23:05:20.919Z,64.60
2022-10-12T23:10:25.991Z,64.70
2022-10-12T23:15:29.289Z,64.60
2022-10-12T23:20:32.577Z,64.90
2022-10-12T23:25:37.292Z,64.90
2022-10-12T23:30:40.858Z,64.90
2022-10-12T23:35:44.178Z,65.10
2022-10-12T23:40:48.790Z,65.30
2022-10-12T23:45:52.075Z,65.50
2022-10-12T23:50:55.701Z,67.00
2022-10-12T23:56:00.792Z,68.50
